sensor_id;sensor_type;location;lat;lon;timestamp;P1;durP1;ratioP1;P2;durP2;ratioP2
68229;SDS011;55048;52.220;5.160;2023-04-24T00:01:15;1.25;;;0.30;;
68229;SDS011;55048;52.220;5.160;2023-04-24T00:03:42;0.20;;;0.20;;
68229;SDS011;55048;52.220;5.160;2023-04-24T00:06:08;0.10;;;0.10;;
68229;SDS011;55048;52.220;5.160;2023-04-24T00:08:33;1.35;;;0.20;;
68229;SDS011;55048;52.220;5.160;2023-04-24T00:11:00;0.45;;;0.20;;
68229;SDS011;55048;52.220;5.160;2023-04-24T00:13:26;0.43;;;0.20;;
68229;SDS011;55048;52.220;5.160;2023-04-24T00:15:54;0.20;;;0.20;;
68229;SDS011;55048;52.220;5.160;2023-04-24T00:18:20;2.25;;;0.38;;
68229;SDS011;55048;52.220;5.160;2023-04-24T00:20:47;1.33;;;0.40;;
68229;SDS011;55048;52.220;5.160;2023-04-24T00:23:13;2.20;;;0.40;;
68229;SDS011;55048;52.220;5.160;2023-04-24T00:25:38;0.40;;;0.30;;
68229;SDS011;55048;52.220;5.160;2023-04-24T00:28:05;0.38;;;0.10;;
68229;SDS011;55048;52.220;5.160;2023-04-24T00:30:31;0.10;;;0.10;;
68229;SDS011;55048;52.220;5.160;2023-04-24T00:32:57;0.25;;;0.13;;
68229;SDS011;55048;52.220;5.160;2023-04-24T00:35:23;0.70;;;0.20;;
68229;SDS011;55048;52.220;5.160;2023-04-24T00:37:48;2.08;;;0.30;;
68229;SDS011;55048;52.220;5.160;2023-04-24T00:40:14;0.43;;;0.30;;
68229;SDS011;55048;52.220;5.160;2023-04-24T00:42:41;1.83;;;0.30;;
68229;SDS011;55048;52.220;5.160;2023-04-24T00:45:08;0.95;;;0.50;;
68229;SDS011;55048;52.220;5.160;2023-04-24T00:47:33;3.25;;;0.60;;
68229;SDS011;55048;52.220;5.160;2023-04-24T00:50:03;1.55;;;0.40;;
68229;SDS011;55048;52.220;5.160;2023-04-24T00:52:30;1.55;;;0.40;;
68229;SDS011;55048;52.220;5.160;2023-04-24T00:54:57;2.72;;;0.55;;
68229;SDS011;55048;52.220;5.160;2023-04-24T00:57:22;2.72;;;0.52;;
68229;SDS011;55048;52.220;5.160;2023-04-24T00:59:48;2.25;;;0.47;;
68229;SDS011;55048;52.220;5.160;2023-04-24T01:02:15;1.45;;;0.40;;
68229;SDS011;55048;52.220;5.160;2023-04-24T01:04:40;0.85;;;0.32;;
68229;SDS011;55048;52.220;5.160;2023-04-24T01:07:06;1.88;;;0.40;;
68229;SDS011;55048;52.220;5.160;2023-04-24T01:09:36;1.33;;;0.40;;
68229;SDS011;55048;52.220;5.160;2023-04-24T01:12:03;2.90;;;0.38;;
68229;SDS011;55048;52.220;5.160;2023-04-24T01:14:28;2.38;;;0.52;;
68229;SDS011;55048;52.220;5.160;2023-04-24T01:16:55;1.70;;;0.30;;
68229;SDS011;55048;52.220;5.160;2023-04-24T01:19:22;1.42;;;0.50;;
68229;SDS011;55048;52.220;5.160;2023-04-24T01:21:48;2.67;;;0.30;;
68229;SDS011;55048;52.220;5.160;2023-04-24T01:24:18;0.10;;;0.10;;
68229;SDS011;55048;52.220;5.160;2023-04-24T01:26:45;3.05;;;0.20;;
68229;SDS011;55048;52.220;5.160;2023-04-24T01:29:11;1.90;;;0.30;;
68229;SDS011;55048;52.220;5.160;2023-04-24T01:31:37;3.20;;;0.30;;
68229;SDS011;55048;52.220;5.160;2023-04-24T01:34:04;1.33;;;0.35;;
68229;SDS011;55048;52.220;5.160;2023-04-24T01:36:30;1.13;;;0.50;;
68229;SDS011;55048;52.220;5.160;2023-04-24T01:38:58;0.65;;;0.40;;
68229;SDS011;55048;52.220;5.160;2023-04-24T01:41:24;0.73;;;0.40;;
68229;SDS011;55048;52.220;5.160;2023-04-24T01:43:50;0.32;;;0.30;;
68229;SDS011;55048;52.220;5.160;2023-04-24T01:46:18;0.60;;;0.50;;
68229;SDS011;55048;52.220;5.160;2023-04-24T01:48:44;0.40;;;0.35;;
68229;SDS011;55048;52.220;5.160;2023-04-24T01:51:10;1.30;;;0.40;;
68229;SDS011;55048;52.220;5.160;2023-04-24T01:53:36;1.30;;;0.43;;
68229;SDS011;55048;52.220;5.160;2023-04-24T01:56:01;0.88;;;0.40;;
68229;SDS011;55048;52.220;5.160;2023-04-24T01:58:28;0.40;;;0.40;;
68229;SDS011;55048;52.220;5.160;2023-04-24T02:00:56;0.85;;;0.35;;
68229;SDS011;55048;52.220;5.160;2023-04-24T02:03:24;2.60;;;0.30;;
68229;SDS011;55048;52.220;5.160;2023-04-24T02:05:50;0.93;;;0.30;;
68229;SDS011;55048;52.220;5.160;2023-04-24T02:08:16;3.25;;;0.30;;
68229;SDS011;55048;52.220;5.160;2023-04-24T02:10:41;2.33;;;0.30;;
68229;SDS011;55048;52.220;5.160;2023-04-24T02:13:06;3.15;;;0.30;;
68229;SDS011;55048;52.220;5.160;2023-04-24T02:15:32;0.77;;;0.32;;
68229;SDS011;55048;52.220;5.160;2023-04-24T02:17:57;1.05;;;0.30;;
68229;SDS011;55048;52.220;5.160;2023-04-24T02:20:23;1.73;;;0.40;;
68229;SDS011;55048;52.220;5.160;2023-04-24T02:22:48;0.98;;;0.38;;
68229;SDS011;55048;52.220;5.160;2023-04-24T02:25:14;1.38;;;0.30;;
68229;SDS011;55048;52.220;5.160;2023-04-24T02:27:39;0.90;;;0.30;;
68229;SDS011;55048;52.220;5.160;2023-04-24T02:30:06;0.50;;;0.20;;
68229;SDS011;55048;52.220;5.160;2023-04-24T02:32:32;1.17;;;0.20;;
68229;SDS011;55048;52.220;5.160;2023-04-24T02:34:59;0.75;;;0.20;;
68229;SDS011;55048;52.220;5.160;2023-04-24T02:37:24;0.77;;;0.20;;
68229;SDS011;55048;52.220;5.160;2023-04-24T02:39:50;1.25;;;0.30;;
68229;SDS011;55048;52.220;5.160;2023-04-24T02:42:15;1.95;;;0.30;;
68229;SDS011;55048;52.220;5.160;2023-04-24T02:44:40;0.55;;;0.40;;
68229;SDS011;55048;52.220;5.160;2023-04-24T02:47:06;2.58;;;0.40;;
68229;SDS011;55048;52.220;5.160;2023-04-24T02:49:32;1.33;;;0.40;;
68229;SDS011;55048;52.220;5.160;2023-04-24T02:51:58;1.95;;;0.50;;
68229;SDS011;55048;52.220;5.160;2023-04-24T02:54:23;1.63;;;0.50;;
68229;SDS011;55048;52.220;5.160;2023-04-24T02:56:48;1.88;;;0.47;;
68229;SDS011;55048;52.220;5.160;2023-04-24T02:59:14;2.55;;;0.38;;
68229;SDS011;55048;52.220;5.160;2023-04-24T03:01:40;2.25;;;0.60;;
68229;SDS011;55048;52.220;5.160;2023-04-24T03:04:05;1.70;;;0.50;;
68229;SDS011;55048;52.220;5.160;2023-04-24T03:06:30;2.45;;;0.70;;
68229;SDS011;55048;52.220;5.160;2023-04-24T03:08:57;0.75;;;0.50;;
68229;SDS011;55048;52.220;5.160;2023-04-24T03:11:24;1.15;;;0.50;;
68229;SDS011;55048;52.220;5.160;2023-04-24T03:13:50;1.45;;;0.57;;
68229;SDS011;55048;52.220;5.160;2023-04-24T03:16:15;1.05;;;0.50;;
68229;SDS011;55048;52.220;5.160;2023-04-24T03:18:40;1.75;;;0.50;;
68229;SDS011;55048;52.220;5.160;2023-04-24T03:21:07;1.80;;;0.70;;
68229;SDS011;55048;52.220;5.160;2023-04-24T03:23:33;2.75;;;0.60;;
68229;SDS011;55048;52.220;5.160;2023-04-24T03:25:58;2.28;;;0.70;;
68229;SDS011;55048;52.220;5.160;2023-04-24T03:28:24;2.80;;;0.70;;
68229;SDS011;55048;52.220;5.160;2023-04-24T03:31:02;2.40;;;0.60;;
68229;SDS011;55048;52.220;5.160;2023-04-24T03:33:32;2.65;;;0.70;;
68229;SDS011;55048;52.220;5.160;2023-04-24T03:35:59;2.08;;;0.82;;
68229;SDS011;55048;52.220;5.160;2023-04-24T03:38:26;3.22;;;0.80;;
68229;SDS011;55048;52.220;5.160;2023-04-24T03:41:10;1.27;;;0.70;;
68229;SDS011;55048;52.220;5.160;2023-04-24T03:43:41;1.42;;;0.60;;
68229;SDS011;55048;52.220;5.160;2023-04-24T03:46:06;2.22;;;0.70;;
68229;SDS011;55048;52.220;5.160;2023-04-24T03:48:38;1.13;;;0.50;;
68229;SDS011;55048;52.220;5.160;2023-04-24T03:51:05;0.55;;;0.40;;
68229;SDS011;55048;52.220;5.160;2023-04-24T03:53:31;1.15;;;0.40;;
68229;SDS011;55048;52.220;5.160;2023-04-24T03:55:57;1.60;;;0.30;;
68229;SDS011;55048;52.220;5.160;2023-04-24T03:58:23;0.70;;;0.35;;
68229;SDS011;55048;52.220;5.160;2023-04-24T04:00:50;0.80;;;0.45;;
68229;SDS011;55048;52.220;5.160;2023-04-24T04:03:36;0.90;;;0.65;;
68229;SDS011;55048;52.220;5.160;2023-04-24T04:06:02;0.85;;;0.60;;
68229;SDS011;55048;52.220;5.160;2023-04-24T04:08:28;1.38;;;0.50;;
68229;SDS011;55048;52.220;5.160;2023-04-24T04:10:53;1.15;;;0.50;;
68229;SDS011;55048;52.220;5.160;2023-04-24T04:13:18;1.25;;;0.60;;
68229;SDS011;55048;52.220;5.160;2023-04-24T04:15:44;1.00;;;0.60;;
68229;SDS011;55048;52.220;5.160;2023-04-24T04:18:11;1.33;;;0.68;;
68229;SDS011;55048;52.220;5.160;2023-04-24T04:20:37;2.33;;;0.60;;
68229;SDS011;55048;52.220;5.160;2023-04-24T04:23:02;1.40;;;0.60;;
68229;SDS011;55048;52.220;5.160;2023-04-24T04:25:39;0.75;;;0.60;;
68229;SDS011;55048;52.220;5.160;2023-04-24T04:28:04;1.63;;;0.80;;
68229;SDS011;55048;52.220;5.160;2023-04-24T04:30:31;2.03;;;0.80;;
68229;SDS011;55048;52.220;5.160;2023-04-24T04:33:01;1.33;;;0.80;;
68229;SDS011;55048;52.220;5.160;2023-04-24T04:35:29;2.88;;;0.90;;
68229;SDS011;55048;52.220;5.160;2023-04-24T04:37:55;1.10;;;0.70;;
68229;SDS011;55048;52.220;5.160;2023-04-24T04:40:43;1.35;;;0.70;;
68229;SDS011;55048;52.220;5.160;2023-04-24T04:43:11;1.65;;;0.70;;
68229;SDS011;55048;52.220;5.160;2023-04-24T04:45:46;1.83;;;0.73;;
68229;SDS011;55048;52.220;5.160;2023-04-24T04:48:31;3.58;;;0.80;;
68229;SDS011;55048;52.220;5.160;2023-04-24T04:50:59;1.52;;;0.80;;
68229;SDS011;55048;52.220;5.160;2023-04-24T04:53:25;1.45;;;0.80;;
68229;SDS011;55048;52.220;5.160;2023-04-24T04:55:51;2.17;;;0.80;;
68229;SDS011;55048;52.220;5.160;2023-04-24T04:58:18;1.50;;;0.90;;
68229;SDS011;55048;52.220;5.160;2023-04-24T05:00:45;1.65;;;0.88;;
68229;SDS011;55048;52.220;5.160;2023-04-24T05:03:17;4.72;;;0.80;;
68229;SDS011;55048;52.220;5.160;2023-04-24T05:05:43;1.25;;;0.80;;
68229;SDS011;55048;52.220;5.160;2023-04-24T05:08:11;2.58;;;0.80;;
68229;SDS011;55048;52.220;5.160;2023-04-24T05:10:36;2.00;;;0.88;;
68229;SDS011;55048;52.220;5.160;2023-04-24T05:13:03;1.00;;;0.65;;
68229;SDS011;55048;52.220;5.160;2023-04-24T05:15:30;1.40;;;0.70;;
68229;SDS011;55048;52.220;5.160;2023-04-24T05:17:57;1.92;;;0.60;;
68229;SDS011;55048;52.220;5.160;2023-04-24T05:20:23;2.08;;;0.30;;
68229;SDS011;55048;52.220;5.160;2023-04-24T05:22:48;1.58;;;0.20;;
68229;SDS011;55048;52.220;5.160;2023-04-24T05:25:15;0.57;;;0.20;;
68229;SDS011;55048;52.220;5.160;2023-04-24T05:27:49;1.42;;;0.20;;
68229;SDS011;55048;52.220;5.160;2023-04-24T05:30:16;0.47;;;0.20;;
68229;SDS011;55048;52.220;5.160;2023-04-24T05:32:42;0.68;;;0.25;;
68229;SDS011;55048;52.220;5.160;2023-04-24T05:35:07;0.22;;;0.20;;
68229;SDS011;55048;52.220;5.160;2023-04-24T05:37:34;1.67;;;0.20;;
68229;SDS011;55048;52.220;5.160;2023-04-24T05:40:00;0.17;;;0.17;;
68229;SDS011;55048;52.220;5.160;2023-04-24T05:42:25;0.68;;;0.20;;
68229;SDS011;55048;52.220;5.160;2023-04-24T05:44:51;0.50;;;0.30;;
68229;SDS011;55048;52.220;5.160;2023-04-24T05:47:16;0.60;;;0.20;;
68229;SDS011;55048;52.220;5.160;2023-04-24T05:49:42;1.73;;;0.28;;
68229;SDS011;55048;52.220;5.160;2023-04-24T05:52:07;1.10;;;0.22;;
68229;SDS011;55048;52.220;5.160;2023-04-24T05:54:34;4.40;;;0.20;;
68229;SDS011;55048;52.220;5.160;2023-04-24T05:57:00;3.00;;;0.38;;
68229;SDS011;55048;52.220;5.160;2023-04-24T05:59:42;1.42;;;0.20;;
68229;SDS011;55048;52.220;5.160;2023-04-24T06:02:07;0.15;;;0.10;;
68229;SDS011;55048;52.220;5.160;2023-04-24T06:04:33;2.58;;;0.30;;
68229;SDS011;55048;52.220;5.160;2023-04-24T06:06:59;1.95;;;0.57;;
68229;SDS011;55048;52.220;5.160;2023-04-24T06:09:25;1.38;;;0.80;;
68229;SDS011;55048;52.220;5.160;2023-04-24T06:11:50;4.70;;;1.90;;
68229;SDS011;55048;52.220;5.160;2023-04-24T06:14:20;8.93;;;3.97;;
68229;SDS011;55048;52.220;5.160;2023-04-24T06:17:04;10.63;;;4.95;;
68229;SDS011;55048;52.220;5.160;2023-04-24T06:19:35;9.63;;;4.72;;
68229;SDS011;55048;52.220;5.160;2023-04-24T06:22:01;8.13;;;4.93;;
68229;SDS011;55048;52.220;5.160;2023-04-24T06:24:27;8.60;;;5.45;;
68229;SDS011;55048;52.220;5.160;2023-04-24T06:26:53;7.75;;;5.03;;
68229;SDS011;55048;52.220;5.160;2023-04-24T06:29:19;9.73;;;5.78;;
68229;SDS011;55048;52.220;5.160;2023-04-24T06:31:44;10.93;;;6.25;;
68229;SDS011;55048;52.220;5.160;2023-04-24T06:34:10;12.32;;;5.82;;
68229;SDS011;55048;52.220;5.160;2023-04-24T06:36:35;7.68;;;5.07;;
68229;SDS011;55048;52.220;5.160;2023-04-24T06:39:01;10.10;;;5.60;;
68229;SDS011;55048;52.220;5.160;2023-04-24T06:41:27;13.07;;;6.35;;
68229;SDS011;55048;52.220;5.160;2023-04-24T06:43:53;12.65;;;4.70;;
68229;SDS011;55048;52.220;5.160;2023-04-24T06:46:19;12.23;;;6.03;;
68229;SDS011;55048;52.220;5.160;2023-04-24T06:48:47;15.30;;;4.22;;
68229;SDS011;55048;52.220;5.160;2023-04-24T06:51:12;10.43;;;4.45;;
68229;SDS011;55048;52.220;5.160;2023-04-24T06:53:37;16.98;;;4.78;;
68229;SDS011;55048;52.220;5.160;2023-04-24T06:56:03;9.90;;;4.38;;
68229;SDS011;55048;52.220;5.160;2023-04-24T06:58:30;8.50;;;4.53;;
68229;SDS011;55048;52.220;5.160;2023-04-24T07:00:55;13.52;;;4.65;;
68229;SDS011;55048;52.220;5.160;2023-04-24T07:03:21;12.43;;;4.47;;
68229;SDS011;55048;52.220;5.160;2023-04-24T07:05:46;13.23;;;5.15;;
68229;SDS011;55048;52.220;5.160;2023-04-24T07:08:12;13.40;;;4.75;;
68229;SDS011;55048;52.220;5.160;2023-04-24T07:10:38;12.52;;;5.20;;
68229;SDS011;55048;52.220;5.160;2023-04-24T07:13:04;10.07;;;3.00;;
68229;SDS011;55048;52.220;5.160;2023-04-24T07:15:29;10.43;;;3.08;;
68229;SDS011;55048;52.220;5.160;2023-04-24T07:17:55;9.63;;;3.75;;
68229;SDS011;55048;52.220;5.160;2023-04-24T07:20:21;11.02;;;4.65;;
68229;SDS011;55048;52.220;5.160;2023-04-24T07:22:46;11.80;;;4.53;;
68229;SDS011;55048;52.220;5.160;2023-04-24T07:25:13;8.10;;;3.50;;
68229;SDS011;55048;52.220;5.160;2023-04-24T07:27:38;7.93;;;2.58;;
68229;SDS011;55048;52.220;5.160;2023-04-24T07:30:04;7.28;;;2.80;;
68229;SDS011;55048;52.220;5.160;2023-04-24T07:32:30;7.55;;;2.90;;
68229;SDS011;55048;52.220;5.160;2023-04-24T07:34:55;14.27;;;3.60;;
68229;SDS011;55048;52.220;5.160;2023-04-24T07:37:21;11.60;;;3.45;;
68229;SDS011;55048;52.220;5.160;2023-04-24T07:39:46;9.35;;;2.70;;
68229;SDS011;55048;52.220;5.160;2023-04-24T07:42:12;10.73;;;3.63;;
68229;SDS011;55048;52.220;5.160;2023-04-24T07:44:37;12.13;;;3.10;;
68229;SDS011;55048;52.220;5.160;2023-04-24T07:47:03;11.50;;;3.60;;
68229;SDS011;55048;52.220;5.160;2023-04-24T07:49:28;6.72;;;2.72;;
68229;SDS011;55048;52.220;5.160;2023-04-24T07:51:54;18.60;;;3.75;;
68229;SDS011;55048;52.220;5.160;2023-04-24T07:54:19;14.00;;;3.13;;
68229;SDS011;55048;52.220;5.160;2023-04-24T07:56:45;16.65;;;3.22;;
68229;SDS011;55048;52.220;5.160;2023-04-24T07:59:10;20.20;;;2.85;;
68229;SDS011;55048;52.220;5.160;2023-04-24T08:01:36;19.50;;;2.53;;
68229;SDS011;55048;52.220;5.160;2023-04-24T08:04:01;14.70;;;1.70;;
68229;SDS011;55048;52.220;5.160;2023-04-24T08:06:27;15.27;;;2.58;;
68229;SDS011;55048;52.220;5.160;2023-04-24T08:08:55;17.80;;;1.67;;
68229;SDS011;55048;52.220;5.160;2023-04-24T08:11:21;12.45;;;1.80;;
68229;SDS011;55048;52.220;5.160;2023-04-24T08:13:47;10.05;;;1.73;;
68229;SDS011;55048;52.220;5.160;2023-04-24T08:16:12;15.00;;;1.83;;
68229;SDS011;55048;52.220;5.160;2023-04-24T08:18:38;13.73;;;1.45;;
68229;SDS011;55048;52.220;5.160;2023-04-24T08:21:03;14.00;;;2.08;;
68229;SDS011;55048;52.220;5.160;2023-04-24T08:23:29;8.07;;;1.15;;
68229;SDS011;55048;52.220;5.160;2023-04-24T08:25:55;13.23;;;1.40;;
68229;SDS011;55048;52.220;5.160;2023-04-24T08:28:20;9.38;;;1.15;;
68229;SDS011;55048;52.220;5.160;2023-04-24T08:30:46;13.27;;;0.95;;
68229;SDS011;55048;52.220;5.160;2023-04-24T08:33:13;10.18;;;1.60;;
68229;SDS011;55048;52.220;5.160;2023-04-24T08:35:39;13.05;;;1.63;;
68229;SDS011;55048;52.220;5.160;2023-04-24T08:38:04;12.00;;;1.48;;
68229;SDS011;55048;52.220;5.160;2023-04-24T08:40:30;11.45;;;1.38;;
68229;SDS011;55048;52.220;5.160;2023-04-24T08:42:59;11.85;;;1.60;;
68229;SDS011;55048;52.220;5.160;2023-04-24T08:45:25;12.98;;;1.38;;
68229;SDS011;55048;52.220;5.160;2023-04-24T08:47:51;3.92;;;0.70;;
68229;SDS011;55048;52.220;5.160;2023-04-24T08:50:18;9.50;;;1.20;;
68229;SDS011;55048;52.220;5.160;2023-04-24T08:52:44;9.93;;;1.08;;
68229;SDS011;55048;52.220;5.160;2023-04-24T08:55:09;8.57;;;1.30;;
68229;SDS011;55048;52.220;5.160;2023-04-24T08:57:35;10.73;;;1.27;;
68229;SDS011;55048;52.220;5.160;2023-04-24T09:00:01;10.13;;;0.95;;
68229;SDS011;55048;52.220;5.160;2023-04-24T09:02:26;9.98;;;1.60;;
68229;SDS011;55048;52.220;5.160;2023-04-24T09:04:52;15.55;;;1.50;;
68229;SDS011;55048;52.220;5.160;2023-04-24T09:07:20;13.40;;;1.27;;
68229;SDS011;55048;52.220;5.160;2023-04-24T09:09:50;14.40;;;1.20;;
68229;SDS011;55048;52.220;5.160;2023-04-24T09:12:16;9.38;;;1.23;;
68229;SDS011;55048;52.220;5.160;2023-04-24T09:14:42;10.13;;;0.90;;
68229;SDS011;55048;52.220;5.160;2023-04-24T09:17:10;11.98;;;1.70;;
68229;SDS011;55048;52.220;5.160;2023-04-24T09:19:36;10.80;;;1.13;;
68229;SDS011;55048;52.220;5.160;2023-04-24T09:22:05;6.40;;;0.80;;
68229;SDS011;55048;52.220;5.160;2023-04-24T09:24:31;12.55;;;1.00;;
68229;SDS011;55048;52.220;5.160;2023-04-24T09:26:57;6.07;;;0.82;;
68229;SDS011;55048;52.220;5.160;2023-04-24T09:29:24;9.65;;;1.25;;
68229;SDS011;55048;52.220;5.160;2023-04-24T09:31:49;9.48;;;1.02;;
68229;SDS011;55048;52.220;5.160;2023-04-24T09:34:18;5.05;;;0.82;;
68229;SDS011;55048;52.220;5.160;2023-04-24T09:36:46;7.55;;;1.17;;
68229;SDS011;55048;52.220;5.160;2023-04-24T09:39:13;10.15;;;0.98;;
68229;SDS011;55048;52.220;5.160;2023-04-24T09:44:12;7.15;;;0.70;;
68229;SDS011;55048;52.220;5.160;2023-04-24T09:46:39;6.32;;;1.17;;
68229;SDS011;55048;52.220;5.160;2023-04-24T09:49:07;4.35;;;0.90;;
68229;SDS011;55048;52.220;5.160;2023-04-24T09:51:35;4.90;;;0.63;;
68229;SDS011;55048;52.220;5.160;2023-04-24T09:54:05;5.15;;;0.60;;
68229;SDS011;55048;52.220;5.160;2023-04-24T09:56:39;4.60;;;0.70;;
68229;SDS011;55048;52.220;5.160;2023-04-24T09:59:07;7.93;;;0.60;;
68229;SDS011;55048;52.220;5.160;2023-04-24T10:01:33;4.28;;;0.50;;
68229;SDS011;55048;52.220;5.160;2023-04-24T10:03:59;4.65;;;0.60;;
68229;SDS011;55048;52.220;5.160;2023-04-24T10:06:32;3.67;;;0.65;;
68229;SDS011;55048;52.220;5.160;2023-04-24T10:08:59;4.85;;;0.65;;
68229;SDS011;55048;52.220;5.160;2023-04-24T10:11:26;8.05;;;0.57;;
68229;SDS011;55048;52.220;5.160;2023-04-24T10:13:52;4.22;;;0.45;;
68229;SDS011;55048;52.220;5.160;2023-04-24T10:16:17;3.08;;;0.40;;
68229;SDS011;55048;52.220;5.160;2023-04-24T10:18:44;5.47;;;0.52;;
68229;SDS011;55048;52.220;5.160;2023-04-24T10:21:11;6.35;;;1.25;;
68229;SDS011;55048;52.220;5.160;2023-04-24T10:23:37;3.50;;;0.57;;
68229;SDS011;55048;52.220;5.160;2023-04-24T10:26:03;4.15;;;0.40;;
68229;SDS011;55048;52.220;5.160;2023-04-24T10:28:29;2.75;;;0.43;;
68229;SDS011;55048;52.220;5.160;2023-04-24T10:30:56;4.00;;;0.40;;
68229;SDS011;55048;52.220;5.160;2023-04-24T10:33:23;3.97;;;0.40;;
68229;SDS011;55048;52.220;5.160;2023-04-24T10:35:49;2.55;;;0.32;;
68229;SDS011;55048;52.220;5.160;2023-04-24T10:38:18;2.72;;;0.88;;
68229;SDS011;55048;52.220;5.160;2023-04-24T10:40:49;5.55;;;0.50;;
68229;SDS011;55048;52.220;5.160;2023-04-24T10:43:16;3.88;;;0.40;;
68229;SDS011;55048;52.220;5.160;2023-04-24T10:45:42;3.75;;;0.50;;
68229;SDS011;55048;52.220;5.160;2023-04-24T10:48:26;7.93;;;0.55;;
68229;SDS011;55048;52.220;5.160;2023-04-24T10:50:52;3.78;;;0.50;;
68229;SDS011;55048;52.220;5.160;2023-04-24T10:53:19;4.25;;;0.40;;
68229;SDS011;55048;52.220;5.160;2023-04-24T10:55:50;3.88;;;0.50;;
68229;SDS011;55048;52.220;5.160;2023-04-24T10:58:21;4.80;;;1.00;;
68229;SDS011;55048;52.220;5.160;2023-04-24T11:00:55;4.95;;;0.57;;
68229;SDS011;55048;52.220;5.160;2023-04-24T11:03:25;2.42;;;0.40;;
68229;SDS011;55048;52.220;5.160;2023-04-24T11:05:56;3.20;;;0.43;;
68229;SDS011;55048;52.220;5.160;2023-04-24T11:08:36;4.13;;;0.65;;
68229;SDS011;55048;52.220;5.160;2023-04-24T11:11:15;5.05;;;0.32;;
68229;SDS011;55048;52.220;5.160;2023-04-24T11:16:30;1.88;;;0.20;;
68229;SDS011;55048;52.220;5.160;2023-04-24T11:19:10;1.80;;;0.20;;
68229;SDS011;55048;52.220;5.160;2023-04-24T11:21:47;3.95;;;0.60;;
68229;SDS011;55048;52.220;5.160;2023-04-24T11:29:41;5.13;;;0.30;;
68229;SDS011;55048;52.220;5.160;2023-04-24T11:32:41;1.08;;;0.17;;
68229;SDS011;55048;52.220;5.160;2023-04-24T11:35:01;0.80;;;0.20;;
68229;SDS011;55048;52.220;5.160;2023-04-24T11:40:00;1.85;;;0.20;;
68229;SDS011;55048;52.220;5.160;2023-04-24T11:42:26;3.35;;;0.30;;
68229;SDS011;55048;52.220;5.160;2023-04-24T11:44:53;2.83;;;0.35;;
68229;SDS011;55048;52.220;5.160;2023-04-24T11:47:26;2.00;;;0.30;;
68229;SDS011;55048;52.220;5.160;2023-04-24T11:49:52;3.53;;;0.30;;
68229;SDS011;55048;52.220;5.160;2023-04-24T11:52:18;4.05;;;0.47;;
68229;SDS011;55048;52.220;5.160;2023-04-24T11:54:48;2.33;;;0.30;;
68229;SDS011;55048;52.220;5.160;2023-04-24T11:57:15;2.33;;;0.28;;
68229;SDS011;55048;52.220;5.160;2023-04-24T11:59:41;4.82;;;0.40;;
68229;SDS011;55048;52.220;5.160;2023-04-24T12:02:06;3.65;;;0.60;;
68229;SDS011;55048;52.220;5.160;2023-04-24T12:04:38;3.50;;;0.50;;
68229;SDS011;55048;52.220;5.160;2023-04-24T12:07:06;4.93;;;0.50;;
68229;SDS011;55048;52.220;5.160;2023-04-24T12:10:06;1.70;;;0.20;;
68229;SDS011;55048;52.220;5.160;2023-04-24T12:12:26;2.38;;;0.30;;
68229;SDS011;55048;52.220;5.160;2023-04-24T12:14:53;6.15;;;0.40;;
68229;SDS011;55048;52.220;5.160;2023-04-24T12:17:30;3.72;;;0.50;;
68229;SDS011;55048;52.220;5.160;2023-04-24T12:19:57;5.50;;;0.55;;
68229;SDS011;55048;52.220;5.160;2023-04-24T12:25:12;3.72;;;0.30;;
68229;SDS011;55048;52.220;5.160;2023-04-24T12:27:39;3.72;;;0.40;;
68229;SDS011;55048;52.220;5.160;2023-04-24T12:30:05;4.72;;;0.50;;
68229;SDS011;55048;52.220;5.160;2023-04-24T12:32:34;6.63;;;0.43;;
68229;SDS011;55048;52.220;5.160;2023-04-24T12:35:00;5.55;;;0.70;;
68229;SDS011;55048;52.220;5.160;2023-04-24T12:37:25;5.80;;;0.60;;
68229;SDS011;55048;52.220;5.160;2023-04-24T12:40:07;6.82;;;0.70;;
68229;SDS011;55048;52.220;5.160;2023-04-24T12:42:34;9.23;;;1.10;;
68229;SDS011;55048;52.220;5.160;2023-04-24T12:45:01;7.25;;;0.77;;
68229;SDS011;55048;52.220;5.160;2023-04-24T12:47:29;10.00;;;0.98;;
68229;SDS011;55048;52.220;5.160;2023-04-24T12:49:55;8.27;;;0.88;;
68229;SDS011;55048;52.220;5.160;2023-04-24T12:52:24;8.80;;;0.80;;
68229;SDS011;55048;52.220;5.160;2023-04-24T12:54:56;9.55;;;0.80;;
68229;SDS011;55048;52.220;5.160;2023-04-24T12:57:26;8.90;;;0.88;;
68229;SDS011;55048;52.220;5.160;2023-04-24T12:59:53;7.93;;;0.90;;
68229;SDS011;55048;52.220;5.160;2023-04-24T13:02:20;12.35;;;1.00;;
68229;SDS011;55048;52.220;5.160;2023-04-24T13:04:47;5.70;;;0.77;;
68229;SDS011;55048;52.220;5.160;2023-04-24T13:07:13;9.98;;;0.93;;
68229;SDS011;55048;52.220;5.160;2023-04-24T13:09:40;13.25;;;1.38;;
68229;SDS011;55048;52.220;5.160;2023-04-24T13:12:06;7.32;;;0.85;;
68229;SDS011;55048;52.220;5.160;2023-04-24T13:14:32;8.52;;;0.90;;
68229;SDS011;55048;52.220;5.160;2023-04-24T13:16:58;14.48;;;0.98;;
68229;SDS011;55048;52.220;5.160;2023-04-24T13:19:24;10.70;;;0.90;;
68229;SDS011;55048;52.220;5.160;2023-04-24T13:21:56;6.88;;;0.80;;
68229;SDS011;55048;52.220;5.160;2023-04-24T13:24:22;7.53;;;1.00;;
68229;SDS011;55048;52.220;5.160;2023-04-24T13:26:51;10.45;;;0.80;;
68229;SDS011;55048;52.220;5.160;2023-04-24T13:29:17;8.70;;;0.98;;
68229;SDS011;55048;52.220;5.160;2023-04-24T13:31:43;15.27;;;1.38;;
68229;SDS011;55048;52.220;5.160;2023-04-24T13:34:09;6.28;;;1.00;;
68229;SDS011;55048;52.220;5.160;2023-04-24T13:36:34;14.18;;;1.20;;
68229;SDS011;55048;52.220;5.160;2023-04-24T13:39:00;7.85;;;0.80;;
68229;SDS011;55048;52.220;5.160;2023-04-24T13:41:26;9.35;;;1.17;;
68229;SDS011;55048;52.220;5.160;2023-04-24T13:43:51;9.48;;;1.02;;
68229;SDS011;55048;52.220;5.160;2023-04-24T13:46:17;5.38;;;0.90;;
68229;SDS011;55048;52.220;5.160;2023-04-24T13:48:42;6.40;;;1.02;;
68229;SDS011;55048;52.220;5.160;2023-04-24T13:51:07;8.60;;;1.02;;
68229;SDS011;55048;52.220;5.160;2023-04-24T13:53:33;6.38;;;0.77;;
68229;SDS011;55048;52.220;5.160;2023-04-24T13:56:01;7.57;;;0.82;;
68229;SDS011;55048;52.220;5.160;2023-04-24T13:58:27;8.77;;;1.00;;
68229;SDS011;55048;52.220;5.160;2023-04-24T14:00:52;6.28;;;1.15;;
68229;SDS011;55048;52.220;5.160;2023-04-24T14:03:18;13.75;;;1.50;;
68229;SDS011;55048;52.220;5.160;2023-04-24T14:05:43;11.43;;;1.42;;
68229;SDS011;55048;52.220;5.160;2023-04-24T14:08:08;10.35;;;1.20;;
68229;SDS011;55048;52.220;5.160;2023-04-24T14:10:34;12.02;;;1.45;;
68229;SDS011;55048;52.220;5.160;2023-04-24T14:12:59;5.28;;;0.80;;
68229;SDS011;55048;52.220;5.160;2023-04-24T14:15:25;7.90;;;1.10;;
68229;SDS011;55048;52.220;5.160;2023-04-24T14:17:50;5.95;;;1.30;;
68229;SDS011;55048;52.220;5.160;2023-04-24T14:20:16;7.53;;;1.20;;
68229;SDS011;55048;52.220;5.160;2023-04-24T14:22:41;7.75;;;1.00;;
68229;SDS011;55048;52.220;5.160;2023-04-24T14:25:07;9.13;;;1.40;;
68229;SDS011;55048;52.220;5.160;2023-04-24T14:27:32;9.93;;;1.27;;
68229;SDS011;55048;52.220;5.160;2023-04-24T14:29:59;11.90;;;1.52;;
68229;SDS011;55048;52.220;5.160;2023-04-24T14:32:25;10.50;;;1.42;;
68229;SDS011;55048;52.220;5.160;2023-04-24T14:34:51;8.57;;;1.17;;
68229;SDS011;55048;52.220;5.160;2023-04-24T14:37:16;9.93;;;1.00;;
68229;SDS011;55048;52.220;5.160;2023-04-24T14:39:41;3.78;;;0.77;;
68229;SDS011;55048;52.220;5.160;2023-04-24T14:42:07;5.10;;;0.57;;
68229;SDS011;55048;52.220;5.160;2023-04-24T14:44:32;7.72;;;1.10;;
68229;SDS011;55048;52.220;5.160;2023-04-24T14:46:58;11.65;;;1.30;;
68229;SDS011;55048;52.220;5.160;2023-04-24T14:49:24;8.50;;;0.90;;
68229;SDS011;55048;52.220;5.160;2023-04-24T14:51:50;7.90;;;0.90;;
68229;SDS011;55048;52.220;5.160;2023-04-24T14:54:16;7.78;;;1.10;;
68229;SDS011;55048;52.220;5.160;2023-04-24T14:56:41;14.05;;;1.42;;
68229;SDS011;55048;52.220;5.160;2023-04-24T14:59:08;13.65;;;1.50;;
68229;SDS011;55048;52.220;5.160;2023-04-24T15:01:34;6.65;;;0.90;;